Time;durP1;ratioP1;P1;durP2;ratioP2;P2;SDS_P1;SDS_P2;PMS_P1;PMS_P2;Temp;Humidity;BMP_temperature;BMP_pressure;BME280_temperature;BME280_humidity;BME280_pressure;Samples;Min_cycle;Max_cycle;Signal;HPM_P1;HPM_P2
2023/09/23 00:02:21;;;;;;;10.70;5.00;;;;;;;24.35;57.75;99613.41;4842299;29;20717;-45
2023/09/23 00:04:47;;;;;;;9.25;4.88;;;;;;;24.25;58.32;99625.28;4842283;29;20030;-44
2023/09/23 00:07:12;;;;;;;11.68;4.95;;;;;;;24.16;58.76;99617.00;4842382;29;20554;-46
2023/09/23 00:09:39;;;;;;;10.18;4.95;;;;;;;24.31;58.05;99615.13;4842336;29;20041;-47
2023/09/23 00:12:05;;;;;;;11.45;4.72;;;;;;;24.15;58.52;99603.72;4842090;29;20029;-42
2023/09/23 00:14:30;;;;;;;10.95;5.50;;;;;;;24.26;58.20;99613.31;4842208;29;20036;-48
2023/09/23 00:16:56;;;;;;;12.30;5.18;;;;;;;24.54;56.99;99614.22;4841935;29;20037;-43
2023/09/23 00:19:21;;;;;;;7.97;4.88;;;;;;;24.27;57.70;99616.81;4842327;29;20026;-45
2023/09/23 00:21:49;;;;;;;11.18;5.28;;;;;;;23.96;59.62;99620.03;4842185;29;20030;-44
2023/09/23 00:24:14;;;;;;;9.50;4.50;;;;;;;23.94;59.96;99619.53;4841853;29;20041;-43
2023/09/23 00:26:40;;;;;;;13.50;5.45;;;;;;;23.99;59.78;99614.03;4842015;29;20038;-48
2023/09/23 00:29:06;;;;;;;12.23;4.65;;;;;;;23.97;59.85;99613.50;4841946;29;20033;-47
2023/09/23 00:31:31;;;;;;;10.00;4.68;;;;;;;24.06;59.17;99616.34;4841870;29;20064;-47
2023/09/23 00:33:56;;;;;;;12.07;5.07;;;;;;;23.98;59.07;99609.69;4841989;29;20030;-43
2023/09/23 00:36:22;;;;;;;8.68;4.80;;;;;;;24.05;58.86;99615.56;4842287;29;20034;-46
2023/09/23 00:38:48;;;;;;;9.82;4.82;;;;;;;24.37;57.91;99619.38;4855736;29;20178;-45
2023/09/23 00:41:14;;;;;;;10.27;4.80;;;;;;;24.81;56.33;99620.81;4841835;29;20034;-41
2023/09/23 00:43:40;;;;;;;10.55;4.95;;;;;;;24.13;58.42;99620.31;4841708;29;20109;-46
2023/09/23 00:46:07;;;;;;;13.95;6.05;;;;;;;24.10;58.77;99623.59;4841816;29;20034;-43
2023/09/23 00:48:44;;;;;;;9.55;4.85;;;;;;;23.98;58.96;99620.56;4841653;29;20044;-44
2023/09/23 00:51:10;;;;;;;9.57;5.07;;;;;;;23.89;59.27;99616.88;4841674;29;20113;-46
2023/09/23 00:53:39;;;;;;;9.45;4.65;;;;;;;23.92;59.20;99617.09;4841798;29;20036;-44
2023/09/23 00:56:05;;;;;;;13.63;4.95;;;;;;;23.84;59.54;99619.66;4840270;29;20034;-43
2023/09/23 00:58:31;;;;;;;13.25;5.10;;;;;;;23.78;59.56;99618.94;4841591;29;20097;-46
2023/09/23 01:00:58;;;;;;;11.05;5.15;;;;;;;23.66;60.20;99618.56;4840958;29;20054;-42
2023/09/23 01:03:23;;;;;;;10.25;5.03;;;;;;;23.62;60.30;99615.63;4841278;29;20041;-45
2023/09/23 01:06:22;;;;;;;9.82;4.40;;;;;;;23.52;60.77;99615.78;4841928;29;20033;-46
2023/09/23 01:08:50;;;;;;;11.65;4.82;;;;;;;23.52;60.79;99615.78;4841421;29;20029;-47
2023/09/23 01:11:17;;;;;;;7.97;4.50;;;;;;;23.40;61.22;99622.44;4841421;29;20047;-45
2023/09/23 01:13:45;;;;;;;12.13;4.90;;;;;;;23.21;61.88;99614.25;4841051;29;20030;-46
2023/09/23 01:16:13;;;;;;;11.00;5.40;;;;;;;23.28;61.74;99621.22;4841475;29;20110;-44
2023/09/23 01:18:45;;;;;;;12.70;4.88;;;;;;;23.12;62.22;99617.91;4841413;29;20037;-45
2023/09/23 01:21:10;;;;;;;7.75;4.70;;;;;;;23.08;62.49;99622.31;4840939;29;20116;-47
2023/09/23 01:23:38;;;;;;;14.35;6.28;;;;;;;23.23;61.74;99624.81;4840787;29;20476;-45
2023/09/23 01:26:07;;;;;;;8.70;5.20;;;;;;;23.03;62.57;99617.72;4841100;29;20098;-47
2023/09/23 01:28:33;;;;;;;10.68;5.28;;;;;;;22.95;62.84;99619.13;4841635;29;20109;-47
2023/09/23 01:31:00;;;;;;;11.23;5.43;;;;;;;23.09;62.36;99624.69;4859435;29;20029;-44
2023/09/23 01:33:26;;;;;;;10.05;5.28;;;;;;;23.14;62.12;99623.84;4859247;29;20029;-46
2023/09/23 01:35:55;;;;;;;13.82;5.45;;;;;;;23.08;62.46;99635.88;4859239;29;20029;-47
2023/09/23 01:38:21;;;;;;;9.93;5.18;;;;;;;23.16;62.26;99629.78;4846375;29;20033;-46
2023/09/23 01:40:47;;;;;;;11.02;4.85;;;;;;;23.09;62.39;99626.63;4840806;29;20129;-48
2023/09/23 01:43:12;;;;;;;8.98;5.07;;;;;;;23.07;62.35;99621.47;4858985;29;20063;-44
2023/09/23 01:45:38;;;;;;;10.35;5.10;;;;;;;23.05;62.38;99625.59;4859171;29;20049;-43
2023/09/23 01:48:04;;;;;;;10.05;5.50;;;;;;;23.00;62.41;99627.22;4859389;29;20049;-45
2023/09/23 01:50:29;;;;;;;10.48;5.30;;;;;;;22.94;62.75;99633.81;4846683;29;20387;-42
2023/09/23 01:53:00;;;;;;;10.60;4.93;;;;;;;22.69;63.76;99625.94;4840773;29;20049;-42
2023/09/23 01:55:26;;;;;;;10.20;5.03;;;;;;;22.67;64.11;99631.63;4840588;29;20034;-47
2023/09/23 01:57:52;;;;;;;8.50;4.90;;;;;;;22.54;64.52;99643.16;4840531;29;20034;-46
2023/09/23 02:00:18;;;;;;;9.70;4.90;;;;;;;22.59;64.50;99634.97;4840520;29;20069;-45
2023/09/23 02:02:46;;;;;;;13.02;5.70;;;;;;;22.54;64.80;99635.84;4840905;29;20029;-44
2023/09/23 02:05:12;;;;;;;11.07;5.50;;;;;;;22.59;64.47;99633.06;4840956;29;20030;-46
2023/09/23 02:07:39;;;;;;;10.10;5.05;;;;;;;22.53;64.90;99638.84;4842531;29;20038;-43
2023/09/23 02:10:08;;;;;;;11.02;5.30;;;;;;;22.72;64.28;99636.22;4844302;29;20332;-44
2023/09/23 02:12:34;;;;;;;;;;;;;;;22.64;64.30;99630.31;4844715;29;20399;-45
2023/09/23 02:14:59;;;;;;;11.30;5.22;;;;;;;22.65;63.98;99631.13;4844430;29;19923;-47
2023/09/23 02:17:25;;;;;;;9.20;4.88;;;;;;;22.64;64.04;99632.22;4844288;29;20162;-45
2023/09/23 02:19:53;;;;;;;11.25;5.00;;;;;;;22.48;64.96;99628.81;4844372;29;20034;-42
2023/09/23 02:22:19;;;;;;;11.00;4.60;;;;;;;22.38;64.42;99607.25;4844346;29;20073;-44
2023/09/23 02:24:45;;;;;;;10.20;5.10;;;;;;;22.68;63.80;99627.03;4844469;29;20022;-41
2023/09/23 02:27:10;;;;;;;11.13;5.22;;;;;;;22.89;63.01;99633.88;4844268;29;20034;-45
2023/09/23 02:29:36;;;;;;;11.10;5.20;;;;;;;22.38;64.84;99632.44;4844044;29;20492;-47
2023/09/23 02:32:02;;;;;;;10.63;5.22;;;;;;;22.11;66.19;99637.53;4843900;29;20041;-45
2023/09/23 02:34:30;;;;;;;11.73;5.32;;;;;;;22.04;66.79;99632.41;4844319;29;20081;-42
2023/09/23 02:36:56;;;;;;;10.65;5.38;;;;;;;21.95;67.49;99640.34;4843690;29;20037;-47
2023/09/23 02:39:21;;;;;;;10.65;5.40;;;;;;;22.05;67.00;99640.28;4843979;29;20022;-44
2023/09/23 02:41:48;;;;;;;9.05;5.18;;;;;;;22.20;66.34;99633.94;4844144;29;20451;-42
2023/09/23 02:44:22;;;;;;;16.45;5.90;;;;;;;22.42;65.49;99638.09;4843830;29;20074;-42
2023/09/23 02:46:49;;;;;;;11.98;5.75;;;;;;;22.46;65.10;99633.72;4843755;29;20331;-41
2023/09/23 02:49:15;;;;;;;10.00;5.65;;;;;;;22.44;65.42;99635.91;4846790;29;20654;-42
2023/09/23 02:51:44;;;;;;;20.05;9.40;;;;;;;22.69;64.46;99636.78;4846099;29;20041;-41
2023/09/23 02:54:15;;;;;;;11.55;6.63;;;;;;;22.57;64.83;99642.59;4843453;29;20025;-41
2023/09/23 02:56:41;;;;;;;13.00;5.30;;;;;;;22.40;65.45;99640.31;4843770;29;20531;-47
2023/09/23 02:59:21;;;;;;;10.38;5.28;;;;;;;22.36;65.58;99639.25;4843540;29;20033;-43
2023/09/23 03:01:51;;;;;;;13.18;5.47;;;;;;;22.31;65.64;99648.22;4843577;29;20049;-41
2023/09/23 03:04:23;;;;;;;13.05;5.85;;;;;;;22.18;66.44;99649.66;4844083;29;20038;-42
2023/09/23 03:06:50;;;;;;;9.35;5.40;;;;;;;22.03;66.69;99639.75;4843670;29;20078;-42
2023/09/23 03:09:20;;;;;;;11.35;5.05;;;;;;;22.18;66.37;99644.25;4843370;29;20042;-42
2023/09/23 03:11:53;;;;;;;10.40;5.00;;;;;;;22.16;66.39;99635.59;4843544;29;20030;-42
2023/09/23 03:14:23;;;;;;;10.25;5.13;;;;;;;22.28;66.21;99651.50;4843486;29;20041;-42
2023/09/23 03:16:53;;;;;;;8.88;5.10;;;;;;;22.39;65.64;99647.63;4843459;29;20042;-44
2023/09/23 03:19:24;;;;;;;10.52;5.55;;;;;;;22.28;66.01;99659.66;4842195;29;20522;-41
2023/09/23 03:21:56;;;;;;;11.48;5.65;;;;;;;22.26;65.95;99659.13;4843153;29;20403;-42
2023/09/23 03:24:26;;;;;;;9.70;5.47;;;;;;;22.27;66.20;99659.94;4842967;29;20031;-43
2023/09/23 03:27:00;;;;;;;;;;;;;;;22.25;66.36;99662.91;4843432;29;20112;-43
2023/09/23 03:29:30;;;;;;;12.25;5.70;;;;;;;22.20;66.42;99671.88;4843006;29;20057;-44
2023/09/23 03:31:56;;;;;;;14.48;6.00;;;;;;;22.29;65.75;99672.09;4853365;29;20029;-41
2023/09/23 03:34:23;;;;;;;10.80;5.63;;;;;;;21.98;67.38;99663.34;4861584;29;20060;-42
2023/09/23 03:36:49;;;;;;;11.70;5.28;;;;;;;21.98;66.94;99666.06;4861208;29;20462;-41
2023/09/23 03:39:17;;;;;;;11.27;5.68;;;;;;;21.92;67.64;99665.28;4861697;29;20065;-42
2023/09/23 03:41:46;;;;;;;9.17;5.27;;;;;;;21.99;66.99;99671.22;4861161;29;20029;-43
2023/09/23 03:44:14;;;;;;;13.70;5.40;;;;;;;21.86;67.49;99675.34;4861693;29;20036;-42
2023/09/23 03:46:40;;;;;;;13.93;5.20;;;;;;;22.02;67.40;99680.66;4860977;29;20035;-42
2023/09/23 03:49:06;;;;;;;13.35;5.45;;;;;;;22.09;66.57;99689.28;4858949;29;20040;-44
2023/09/23 03:51:31;;;;;;;9.43;5.65;;;;;;;22.08;67.11;99686.84;4842629;29;20030;-43
2023/09/23 03:53:57;;;;;;;13.38;5.57;;;;;;;22.03;67.31;99688.50;4842545;29;20025;-43
2023/09/23 03:56:24;;;;;;;13.35;5.72;;;;;;;22.03;67.31;99688.50;4842536;29;20125;-43
2023/09/23 03:58:54;;;;;;;11.77;5.50;;;;;;;22.08;66.62;99686.84;4842937;29;20030;-41
2023/09/23 04:01:20;;;;;;;7.05;4.53;;;;;;;22.03;66.67;99685.81;4842285;29;20050;-41
2023/09/23 04:03:46;;;;;;;9.82;5.28;;;;;;;21.95;66.50;99681.00;4842756;29;20061;-41
2023/09/23 04:06:12;;;;;;;10.80;5.25;;;;;;;21.99;66.25;99690.16;4842869;29;20029;-44
2023/09/23 04:08:37;;;;;;;10.48;5.50;;;;;;;21.97;66.76;99688.81;4842498;29;20030;-41
2023/09/23 04:11:10;;;;;;;9.05;5.50;;;;;;;21.82;66.52;99687.03;4842758;29;20090;-41
2023/09/23 04:13:38;;;;;;;9.90;4.97;;;;;;;21.75;67.40;99694.63;4842525;29;20022;-40
2023/09/23 04:16:05;;;;;;;9.52;4.97;;;;;;;21.80;67.26;99691.88;4842581;29;20026;-42
2023/09/23 04:18:31;;;;;;;9.63;4.93;;;;;;;21.94;66.48;99692.91;4843099;29;20032;-43
2023/09/23 04:20:57;;;;;;;9.93;5.45;;;;;;;21.95;66.85;99696.41;4842336;29;20026;-42
2023/09/23 04:23:22;;;;;;;11.82;5.05;;;;;;;22.02;66.85;99697.72;4842540;29;20487;-41
2023/09/23 04:25:49;;;;;;;10.10;5.15;;;;;;;21.98;67.00;99699.38;4842627;29;20100;-42
2023/09/23 04:28:16;;;;;;;11.27;5.28;;;;;;;22.03;66.51;99702.06;4842236;29;20053;-42
2023/09/23 04:30:41;;;;;;;10.40;5.00;;;;;;;21.93;66.86;99696.69;4842094;29;21969;-44
2023/09/23 04:33:07;;;;;;;11.20;4.97;;;;;;;22.06;66.67;99700.69;4842273;29;20028;-41
2023/09/23 04:35:34;;;;;;;11.73;5.10;;;;;;;21.99;67.08;99705.59;4842170;29;20422;-41
2023/09/23 04:38:00;;;;;;;13.18;5.40;;;;;;;22.23;66.14;99703.00;4842263;29;20487;-40
2023/09/23 04:40:26;;;;;;;21.17;11.15;;;;;;;22.09;66.37;99685.78;4842157;29;20534;-39
2023/09/23 04:42:51;;;;;;;31.20;21.50;;;;;;;22.35;66.49;99706.22;4842445;29;20033;-39
2023/09/23 04:45:20;;;;;;;14.60;8.55;;;;;;;22.37;66.33;99701.31;4842136;29;20471;-40
2023/09/23 04:47:50;;;;;;;11.60;5.80;;;;;;;22.47;65.43;99713.19;4842197;29;20113;-41
2023/09/23 04:50:17;;;;;;;10.07;5.60;;;;;;;22.32;65.52;99716.81;4841575;29;20372;-41
2023/09/23 04:52:44;;;;;;;14.65;5.88;;;;;;;22.33;66.31;99719.25;4841661;29;20034;-40
2023/09/23 04:55:09;;;;;;;11.82;5.75;;;;;;;22.39;65.97;99701.84;4841959;29;20102;-42
2023/09/23 04:57:36;;;;;;;14.75;5.78;;;;;;;22.40;66.30;99714.28;4841688;29;20476;-41
2023/09/23 05:00:03;;;;;;;11.23;5.75;;;;;;;22.50;65.86;99710.69;4841587;29;20085;-41
2023/09/23 05:02:29;;;;;;;13.98;5.45;;;;;;;22.62;65.42;99722.00;4857327;29;20042;-41
2023/09/23 05:04:54;;;;;;;12.50;5.22;;;;;;;22.80;65.05;99725.09;4859666;29;20045;-43
2023/09/23 05:07:21;;;;;;;13.43;5.20;;;;;;;22.96;64.23;99718.44;4856223;29;20092;-41
2023/09/23 05:09:46;;;;;;;11.77;5.40;;;;;;;23.18;63.46;99717.97;4852328;29;20033;-41
2023/09/23 05:12:12;;;;;;;9.07;5.00;;;;;;;23.38;62.56;99722.38;4852571;29;20034;-42
2023/09/23 05:14:39;;;;;;;14.00;5.80;;;;;;;23.64;62.12;99721.25;4849217;29;20018;-42
2023/09/23 05:17:05;;;;;;;10.88;5.15;;;;;;;23.90;60.56;99727.19;4859292;29;20037;-43
2023/09/23 05:19:32;;;;;;;10.63;5.93;;;;;;;24.01;60.22;99723.25;4858827;29;20044;-41
2023/09/23 05:21:58;;;;;;;9.80;5.72;;;;;;;24.31;58.60;99732.03;4839537;29;20027;-42
2023/09/23 05:24:26;;;;;;;14.25;5.15;;;;;;;24.49;58.41;99742.09;4844830;29;20030;-41
2023/09/23 05:26:53;;;;;;;11.25;5.15;;;;;;;24.64;57.12;99745.72;4849099;29;20109;-42
2023/09/23 05:29:18;;;;;;;10.05;5.18;;;;;;;24.81;56.12;99748.69;4851863;29;20040;-41
2023/09/23 05:31:43;;;;;;;12.05;5.30;;;;;;;24.98;55.87;99761.75;4858016;29;20034;-42
2023/09/23 05:34:09;;;;;;;11.57;5.00;;;;;;;25.20;55.28;99761.06;4858725;29;20037;-43
2023/09/23 05:36:35;;;;;;;14.57;7.43;;;;;;;25.32;54.60;99755.97;4845734;29;20487;-44
2023/09/23 05:39:00;;;;;;;10.50;5.18;;;;;;;25.47;54.19;99748.59;4840252;29;20384;-42
2023/09/23 05:41:26;;;;;;;11.80;4.65;;;;;;;25.56;54.07;99754.97;4839489;29;20539;-43
2023/09/23 05:43:52;;;;;;;9.63;4.40;;;;;;;25.75;53.73;99760.31;4840396;29;20022;-40
2023/09/23 05:46:18;;;;;;;10.20;4.45;;;;;;;26.01;52.41;99751.59;4840363;29;20028;-44
2023/09/23 05:48:48;;;;;;;12.50;5.10;;;;;;;26.21;51.83;99747.63;4839952;29;20048;-42
2023/09/23 05:51:14;;;;;;;7.90;4.60;;;;;;;26.46;51.49;99751.66;4847913;29;20029;-43
2023/09/23 05:53:40;;;;;;;6.50;4.40;;;;;;;26.70;50.75;99751.41;4858257;29;20030;-44
2023/09/23 05:56:06;;;;;;;10.65;4.85;;;;;;;26.81;50.06;99757.41;4858759;29;20060;-41
2023/09/23 05:58:31;;;;;;;9.27;4.70;;;;;;;26.87;49.98;99756.97;4858793;29;20100;-43
2023/09/23 06:00:57;;;;;;;13.02;5.05;;;;;;;27.05;49.55;99757.06;4858157;29;20145;-41
2023/09/23 06:03:23;;;;;;;17.33;5.20;;;;;;;27.46;48.68;99753.25;4857956;29;20057;-43
2023/09/23 06:05:49;;;;;;;10.48;4.78;;;;;;;27.46;49.19;99748.59;4858155;29;20056;-44
2023/09/23 06:08:14;;;;;;;9.63;4.80;;;;;;;27.47;48.63;99766.63;4857948;29;20026;-43
2023/09/23 06:10:40;;;;;;;13.77;4.82;;;;;;;27.59;48.08;99751.53;4842639;29;20032;-42
2023/09/23 06:13:06;;;;;;;11.85;4.50;;;;;;;27.77;47.16;99749.66;4855190;29;20038;-42
2023/09/23 06:15:32;;;;;;;8.60;4.18;;;;;;;28.03;46.37;99757.94;4839413;29;20421;-43
2023/09/23 06:17:57;;;;;;;12.02;4.50;;;;;;;28.25;45.24;99752.31;4839322;29;20054;-42
2023/09/23 06:20:23;;;;;;;9.27;4.25;;;;;;;28.35;45.00;99755.84;4839831;29;20109;-42
2023/09/23 06:22:48;;;;;;;10.00;4.40;;;;;;;28.71;44.26;99763.75;4856568;29;20041;-43
2023/09/23 06:25:14;;;;;;;13.30;4.45;;;;;;;29.00;43.27;99762.25;4853523;29;20034;-41
2023/09/23 06:27:39;;;;;;;12.93;3.90;;;;;;;29.34;42.20;99757.78;4847948;29;20038;-41
2023/09/23 06:30:05;;;;;;;8.70;4.00;;;;;;;29.41;42.26;99753.38;4848765;29;20037;-40
2023/09/23 06:32:33;;;;;;;9.32;4.00;;;;;;;30.28;39.96;99754.81;4856659;29;20113;-42
2023/09/23 06:34:59;;;;;;;13.65;4.30;;;;;;;29.98;40.58;99751.31;4857102;29;20136;-44
2023/09/23 06:37:24;;;;;;;12.55;3.95;;;;;;;30.14;40.42;99755.09;4856819;29;20522;-46
2023/09/23 06:39:50;;;;;;;11.55;4.03;;;;;;;30.05;40.19;99761.78;4853655;29;20037;-43
2023/09/23 06:42:15;;;;;;;10.95;4.45;;;;;;;30.29;39.90;99767.41;4853419;29;20104;-42
2023/09/23 06:44:42;;;;;;;11.15;4.47;;;;;;;30.57;39.38;99753.94;4838838;29;20026;-46
2023/09/23 06:47:08;;;;;;;8.73;4.10;;;;;;;30.84;38.80;99759.16;4852671;29;20065;-46
2023/09/23 06:49:34;;;;;;;8.15;4.05;;;;;;;31.18;38.69;99767.03;4857516;29;20072;-42
2023/09/23 06:51:59;;;;;;;7.70;3.90;;;;;;;31.22;38.40;99766.38;4857276;29;20057;-43
2023/09/23 06:54:25;;;;;;;10.25;4.30;;;;;;;32.22;36.71;99768.75;4859009;29;20128;-44
2023/09/23 06:56:55;;;;;;;9.18;4.05;;;;;;;31.79;37.22;99770.19;4860155;29;20544;-44
2023/09/23 06:59:21;;;;;;;7.80;4.38;;;;;;;31.62;37.23;99757.47;4854211;29;20047;-41
2023/09/23 07:01:46;;;;;;;9.60;4.10;;;;;;;31.64;37.39;99777.97;4842830;29;20042;-45
2023/09/23 07:04:12;;;;;;;11.52;4.10;;;;;;;31.75;37.02;99775.56;4842487;29;20513;-44
2023/09/23 07:06:38;;;;;;;7.75;4.07;;;;;;;31.92;36.49;99780.03;4842208;29;20032;-41
2023/09/23 07:09:04;;;;;;;9.23;4.10;;;;;;;32.07;36.84;99784.84;4842368;29;20039;-42
2023/09/23 07:11:30;;;;;;;10.88;4.00;;;;;;;32.78;35.29;99790.81;4842130;29;20025;-48
2023/09/23 07:13:58;;;;;;;11.90;3.97;;;;;;;33.07;34.59;99792.41;4841300;29;20098;-46
2023/09/23 07:16:23;;;;;;;10.80;4.20;;;;;;;32.40;35.58;99792.09;4850279;29;20057;-43
2023/09/23 07:18:50;;;;;;;10.55;4.50;;;;;;;32.14;36.42;99790.56;4846327;29;20060;-41
2023/09/23 07:21:15;;;;;;;11.57;4.55;;;;;;;32.49;35.59;99792.75;4842097;29;20082;-41
2023/09/23 07:23:41;;;;;;;13.48;6.10;;;;;;;32.50;35.19;99799.03;4844118;29;20030;-42
2023/09/23 07:26:06;;;;;;;21.27;13.02;;;;;;;32.36;35.28;99795.91;4841981;29;20049;-42
2023/09/23 07:28:32;;;;;;;10.23;6.75;;;;;;;32.51;35.09;99795.16;4841373;29;20030;-42
2023/09/23 07:30:57;;;;;;;10.20;5.28;;;;;;;32.62;35.24;99793.53;4842005;29;20430;-41
2023/09/23 07:33:23;;;;;;;9.98;4.50;;;;;;;32.58;35.63;99797.31;4842867;29;20038;-44
2023/09/23 07:35:48;;;;;;;11.25;4.70;;;;;;;32.73;35.22;99791.09;4850521;29;20029;-40
2023/09/23 07:38:13;;;;;;;11.00;5.13;;;;;;;32.63;34.70;99800.63;4859422;29;20069;-47
2023/09/23 07:40:40;;;;;;;12.50;4.57;;;;;;;32.63;34.64;99800.63;4860193;29;20085;-41
2023/09/23 07:43:07;;;;;;;11.52;4.47;;;;;;;32.80;34.73;99798.72;4860381;29;20040;-42
2023/09/23 07:45:32;;;;;;;18.48;5.85;;;;;;;32.98;34.58;99790.97;4860004;29;20040;-43
2023/09/23 07:47:58;;;;;;;10.48;5.93;;;;;;;33.09;34.01;99784.56;4859790;29;20443;-43
2023/09/23 07:50:23;;;;;;;12.60;4.63;;;;;;;33.06;34.39;99790.78;4856221;29;20029;-41
2023/09/23 07:52:49;;;;;;;15.90;4.97;;;;;;;33.29;33.96;99782.72;4851013;29;20363;-43
2023/09/23 07:55:14;;;;;;;8.48;4.38;;;;;;;33.63;33.29;99782.34;4859190;29;20093;-43
2023/09/23 07:57:40;;;;;;;9.82;4.20;;;;;;;34.28;32.73;99782.66;4851533;29;20072;-42
2023/09/23 08:00:09;;;;;;;9.55;4.10;;;;;;;34.09;32.49;99782.63;4850345;29;20292;-42
2023/09/23 08:02:35;;;;;;;10.30;4.45;;;;;;;33.89;33.30;99779.03;4864247;29;20037;-43
2023/09/23 08:05:04;;;;;;;11.45;4.20;;;;;;;34.05;32.31;99770.72;4849501;29;20029;-47
2023/09/23 08:07:30;;;;;;;8.68;3.78;;;;;;;34.26;31.78;99764.88;4849543;29;20379;-44
2023/09/23 08:09:57;;;;;;;8.50;3.60;;;;;;;34.19;31.78;99765.50;4848739;29;20539;-45
2023/09/23 08:12:22;;;;;;;10.52;4.00;;;;;;;34.28;32.25;99774.38;4849119;29;20021;-44
2023/09/23 08:14:48;;;;;;;9.25;4.45;;;;;;;34.36;31.41;99766.25;4850879;29;20041;-41
2023/09/23 08:17:14;;;;;;;12.30;3.85;;;;;;;34.50;31.65;99758.25;4857521;29;20115;-47
2023/09/23 08:19:40;;;;;;;10.70;4.07;;;;;;;34.42;31.48;99760.09;4859073;29;20613;-43
2023/09/23 08:22:05;;;;;;;12.63;3.80;;;;;;;34.54;31.44;99758.31;4855740;29;20044;-43
2023/09/23 08:24:31;;;;;;;11.02;4.07;;;;;;;34.73;30.95;99757.50;4858070;29;20426;-41
2023/09/23 08:26:56;;;;;;;9.07;5.57;;;;;;;34.79;30.88;99753.31;4858387;29;20052;-43
2023/09/23 08:29:23;;;;;;;10.73;4.57;;;;;;;35.14;30.30;99760.63;4859375;29;20030;-43
2023/09/23 08:31:49;;;;;;;8.40;3.88;;;;;;;35.08;29.94;99749.06;4858489;29;20119;-43
2023/09/23 08:34:17;;;;;;;11.77;5.72;;;;;;;35.53;29.78;99752.97;4841055;29;20189;-43
2023/09/23 08:36:43;;;;;;;11.32;5.80;;;;;;;35.82;29.76;99747.88;4840620;29;20030;-44
2023/09/23 08:39:09;;;;;;;11.95;4.82;;;;;;;35.50;29.33;99745.41;4856575;29;20034;-41
2023/09/23 08:41:36;;;;;;;10.80;4.05;;;;;;;34.69;30.98;99740.91;4858119;29;20043;-45
2023/09/23 08:44:05;;;;;;;10.35;3.90;;;;;;;34.72;31.30;99742.13;4856782;29;20057;-43
2023/09/23 08:46:31;;;;;;;7.80;4.03;;;;;;;34.67;31.01;99737.66;4848886;29;20044;-44
2023/09/23 08:48:58;;;;;;;9.70;4.03;;;;;;;34.97;30.32;99726.75;4853948;29;20029;-43
2023/09/23 08:51:27;;;;;;;11.35;4.32;;;;;;;35.32;30.25;99728.56;4859095;29;20155;-45
2023/09/23 08:53:53;;;;;;;;;;;;;;;35.05;30.38;99725.72;4859319;29;20108;-44
2023/09/23 08:56:20;;;;;;;10.13;4.10;;;;;;;35.32;29.87;99728.56;4858419;29;19912;-44
2023/09/23 08:58:48;;;;;;;12.93;4.30;;;;;;;34.99;31.02;99727.19;4858709;29;20041;-45
2023/09/23 09:01:14;;;;;;;9.30;3.87;;;;;;;34.23;30.85;99726.94;4858244;29;20181;-44
2023/09/23 09:03:39;;;;;;;11.52;3.95;;;;;;;34.15;31.36;99722.41;4857666;29;20270;-44
2023/09/23 09:06:16;;;;;;;7.30;3.58;;;;;;;33.87;31.24;99720.63;4849431;29;20037;-46
2023/09/23 09:08:42;;;;;;;14.35;4.20;;;;;;;33.87;31.49;99717.88;4853156;29;20033;-43
2023/09/23 09:11:09;;;;;;;14.35;4.15;;;;;;;33.82;31.75;99713.47;4848621;29;20105;-42
2023/09/23 09:13:36;;;;;;;10.15;3.88;;;;;;;33.74;31.53;99708.13;4850098;29;20049;-44
2023/09/23 09:16:05;;;;;;;11.35;4.25;;;;;;;33.64;31.93;99706.72;4856385;29;20045;-43
2023/09/23 09:18:31;;;;;;;14.98;4.40;;;;;;;33.68;31.88;99704.84;4852692;29;20427;-42
2023/09/23 09:20:57;;;;;;;15.50;6.63;;;;;;;33.36;32.85;99704.91;4858737;29;20114;-46
2023/09/23 09:23:29;;;;;;;15.15;4.20;;;;;;;33.11;32.69;99698.81;4849844;29;20068;-40
2023/09/23 09:25:54;;;;;;;14.55;4.50;;;;;;;32.85;33.15;99700.09;4852247;29;20096;-42
2023/09/23 09:28:20;;;;;;;12.93;4.68;;;;;;;33.07;33.17;99693.16;4857225;29;20025;-45
2023/09/23 09:30:54;;;;;;;12.68;4.57;;;;;;;33.36;33.31;99690.31;4852279;29;20043;-46
2023/09/23 09:33:22;;;;;;;8.02;4.43;;;;;;;33.62;33.05;99696.03;4857443;29;20033;-43
2023/09/23 09:35:47;;;;;;;9.23;4.25;;;;;;;33.70;32.66;99697.03;4856581;29;20041;-45
2023/09/23 09:38:14;;;;;;;11.48;4.40;;;;;;;33.88;32.49;99692.69;4851220;29;20538;-46
2023/09/23 09:40:40;;;;;;;10.30;4.15;;;;;;;33.79;33.21;99699.56;4849793;29;20033;-42
2023/09/23 09:43:06;;;;;;;13.63;4.80;;;;;;;33.58;32.79;99691.59;4853342;29;20467;-46
2023/09/23 09:45:40;;;;;;;8.35;4.20;;;;;;;33.57;32.96;99685.28;4855410;29;20030;-45
2023/09/23 09:48:08;;;;;;;12.93;4.47;;;;;;;33.35;33.22;99691.47;4852629;29;20029;-43
2023/09/23 09:50:38;;;;;;;13.70;4.35;;;;;;;33.03;33.04;99677.69;4850823;29;20033;-43
2023/09/23 09:53:06;;;;;;;8.50;4.32;;;;;;;32.88;33.23;99685.63;4844643;29;20045;-42
2023/09/23 09:55:32;;;;;;;9.53;5.00;;;;;;;33.16;33.16;99672.91;4849263;29;20074;-44
2023/09/23 09:58:01;;;;;;;13.90;4.55;;;;;;;33.55;32.42;99671.06;4843718;29;20037;-43
2023/09/23 10:00:27;;;;;;;11.05;4.30;;;;;;;33.39;32.58;99671.09;4840257;29;20066;-43
2023/09/23 10:03:00;;;;;;;15.35;4.90;;;;;;;33.35;32.72;99667.44;4839767;29;20340;-43
2023/09/23 10:05:39;;;;;;;14.70;4.47;;;;;;;33.30;33.40;99663.03;4839822;29;20038;-44
2023/09/23 10:08:24;;;;;;;12.80;4.82;;;;;;;33.30;32.97;99660.28;4853447;29;20041;-43
2023/09/23 10:10:51;;;;;;;14.63;4.43;;;;;;;33.28;33.18;99650.75;4839321;29;20030;-43
2023/09/23 10:13:22;;;;;;;13.10;4.60;;;;;;;33.73;32.90;99654.13;4848995;29;20111;-45
2023/09/23 10:15:48;;;;;;;12.65;4.72;;;;;;;33.82;32.79;99647.22;4857945;29;20474;-40
2023/09/23 10:18:16;;;;;;;15.45;4.45;;;;;;;33.68;33.63;99649.69;4857731;29;20085;-43
2023/09/23 10:20:46;;;;;;;9.55;4.40;;;;;;;33.51;33.61;99650.88;4857951;29;20037;-42
2023/09/23 10:23:15;;;;;;;13.63;4.63;;;;;;;33.35;33.89;99641.84;4857911;29;20057;-44
2023/09/23 10:25:45;;;;;;;10.30;4.60;;;;;;;33.64;33.36;99635.84;4857516;29;20081;-44
2023/09/23 10:28:22;;;;;;;15.88;5.13;;;;;;;33.96;32.76;99630.16;4858784;29;20068;-47
2023/09/23 10:31:03;;;;;;;11.10;4.47;;;;;;;34.22;33.20;99606.63;4844728;29;20037;-45
2023/09/23 10:33:31;;;;;;;11.32;4.50;;;;;;;34.16;32.47;99613.63;4843104;29;20038;-42
2023/09/23 10:35:58;;;;;;;11.45;4.60;;;;;;;33.69;33.22;99607.16;4842762;29;20030;-46
2023/09/23 10:38:25;;;;;;;11.07;4.32;;;;;;;33.33;33.69;99609.13;4851874;29;20034;-43
2023/09/23 10:40:52;;;;;;;10.02;4.53;;;;;;;32.57;34.65;99600.22;4861206;29;20029;-43
2023/09/23 10:43:18;;;;;;;9.48;4.60;;;;;;;32.70;34.69;99607.22;4861250;29;20113;-44
2023/09/23 10:45:44;;;;;;;10.73;4.20;;;;;;;33.31;33.52;99589.38;4861460;29;20160;-44
2023/09/23 10:48:09;;;;;;;14.32;4.70;;;;;;;33.17;33.40;99558.72;4861100;29;20037;-47
2023/09/23 10:50:35;;;;;;;9.13;4.63;;;;;;;34.03;32.89;99585.34;4860843;29;20029;-47
2023/09/23 10:53:01;;;;;;;11.20;4.45;;;;;;;34.27;32.56;99582.28;4860618;29;20570;-44
2023/09/23 10:55:26;;;;;;;11.13;4.22;;;;;;;34.76;32.15;99577.19;4859397;29;20054;-47
2023/09/23 10:57:53;;;;;;;15.52;4.05;;;;;;;35.11;31.80;99573.34;4842912;29;20467;-46
2023/09/23 11:00:20;;;;;;;10.20;4.35;;;;;;;35.16;31.34;99568.28;4842481;29;20065;-44
2023/09/23 11:02:51;;;;;;;12.25;4.20;;;;;;;34.87;30.99;99577.34;4842140;29;20133;-43
2023/09/23 11:05:17;;;;;;;12.25;4.60;;;;;;;34.87;31.50;99569.84;4841941;29;20026;-42
2023/09/23 11:07:42;;;;;;;8.27;4.30;;;;;;;35.30;30.90;99577.97;4842082;29;20045;-44
2023/09/23 11:10:11;;;;;;;9.35;4.35;;;;;;;35.43;31.10;99562.75;4842392;29;20026;-45
2023/09/23 11:12:36;;;;;;;8.77;4.57;;;;;;;35.65;30.72;99561.03;4842240;29;20089;-44
2023/09/23 11:15:02;;;;;;;9.57;4.32;;;;;;;35.51;30.77;99556.16;4842253;29;20443;-42
2023/09/23 11:17:33;;;;;;;11.02;4.47;;;;;;;35.54;30.54;99538.00;4842622;29;20368;-44
2023/09/23 11:19:59;;;;;;;10.88;4.90;;;;;;;35.69;30.32;99552.81;4842092;29;20030;-43
2023/09/23 11:22:26;;;;;;;9.45;4.65;;;;;;;35.68;30.56;99548.44;4842206;29;20137;-44
2023/09/23 11:24:54;;;;;;;12.60;5.13;;;;;;;35.95;29.91;99530.56;4841848;29;20025;-46
2023/09/23 11:27:21;;;;;;;11.50;5.70;;;;;;;36.30;29.54;99528.53;4842097;29;20038;-47
2023/09/23 11:29:48;;;;;;;14.30;5.45;;;;;;;36.04;29.53;99527.47;4841941;29;20488;-44